Flight Track Log - Related Links

Times and Time Zones

All times are in EDT time to prevent confusion due to time zone crossing. See the N100PR flight status page for this flight to view local times or setup timezone preferences in your user account.

Time Position Orientation Groundspeed Altitude Reporting Facility
EDT Latitude Longitude Course Direction KTS MPH feet Rate Location/Type
Fri 01:09:38 PM 33.7833 -118.3000 262° West 96 110 1,500  Level Southern California TRACON
Fri 01:10:44 PM 33.7667 -118.2667 121° Southeast 145 167 2,600 918 Climbing Southern California TRACON
Fri 01:11:16 PM 33.7614 -118.2586 128° Southeast 104 120 3,000 894 Climbing Los Angeles Center
Fri 01:12:18 PM 33.7747 -118.2397 50° Northeast 113 130 4,000 919 Climbing Los Angeles Center
Fri 01:13:20 PM 33.8078 -118.2589 334° Northwest 112 129 4,900 823 Climbing Los Angeles Center
Fri 01:14:00 PM 33.9114 -118.4976 262° West  Level FlightAware Approximate
Fri 01:14:22 PM 33.8281 -118.2889 309° West 115 132 5,700  Level Los Angeles Center
Fri 01:15:24 PM 33.8497 -118.3178 312° West 116 133 6,000 145 Climbing Los Angeles Center
Fri 01:16:26 PM 33.8736 -118.3575 306° West 141 162 6,000 48 Level Los Angeles Center
Fri 01:17:28 PM 33.8964 -118.4017 302° West 153 176 6,100 48 Climbing Los Angeles Center
Fri 01:18:30 PM 33.9347 -118.4433 318° Northwest 154 177 6,100  Level Los Angeles Center
Fri 01:19:32 PM 33.9575 -118.4886 301° West 159 183 6,100  Level Los Angeles Center
Fri 01:20:34 PM 33.9764 -118.5394 294° West 156 180 6,100  Level Los Angeles Center
Fri 01:21:37 PM 33.9964 -118.5864 297° West 157 181 6,100 288 Level Los Angeles Center
Fri 01:22:39 PM 34.0136 -118.6297 296° West 144 166 6,700 532 Climbing Los Angeles Center
Fri 01:23:41 PM 34.0308 -118.6742 295° West 136 157 7,200 435 Climbing Los Angeles Center
Fri 01:24:43 PM 34.0472 -118.7158 295° West 138 159 7,600 435 Climbing Los Angeles Center
Fri 01:25:45 PM 34.0636 -118.7608 294° West 136 157 8,100 289 Climbing Los Angeles Center
Fri 01:26:06 PM 34.0639 -118.7767 271° West 134 154 8,000 211 Descending Los Angeles Center
Fri 01:26:42 PM 34.0733 -118.7994 297° West 137 158 8,300 350 Climbing Los Angeles Center
Fri 01:27:49 PM 34.0928 -118.8397 300° West 136 157 8,600 140 Climbing Los Angeles Center
Fri 01:28:51 PM 34.1122 -118.8942 293° West 148 170 8,600  Level Los Angeles Center
Fri 01:29:53 PM 34.1458 -118.9275 321° Northwest 155 178 8,600  Level Los Angeles Center
Fri 01:30:55 PM 34.1803 -118.9608 321° Northwest 159 183 8,600  Level Los Angeles Center
Fri 01:31:58 PM 34.2128 -118.9961 318° Northwest 157 181 8,600  Level Los Angeles Center
Fri 01:33:00 PM 34.2481 -119.0292 322° Northwest 161 185 8,600  Level Los Angeles Center
Fri 01:34:02 PM 34.2814 -119.0614 321° Northwest 154 177 8,600  Level Los Angeles Center
Fri 01:35:04 PM 34.3222 -119.1014 321° Northwest 156 180 8,600  Level Los Angeles Center
Fri 01:36:18 PM 34.3539 -119.1353 319° Northwest 152 175 8,600  Level Los Angeles Center
Fri 01:37:20 PM 34.3961 -119.1706 325° Northwest 153 176 8,600  Level Los Angeles Center
Fri 01:38:23 PM 34.4283 -119.2056 318° Northwest 154 177 8,600  Level Los Angeles Center
Fri 01:39:25 PM 34.4603 -119.2400 318° Northwest 155 178 8,600  Level Los Angeles Center
Fri 01:40:27 PM 34.4986 -119.2789 320° Northwest 152 175 8,600  Level Los Angeles Center
Fri 01:41:29 PM 34.5306 -119.3128 319° Northwest 152 175 8,600  Level Los Angeles Center
Fri 01:42:31 PM 34.5631 -119.3478 318° Northwest 155 178 8,600  Level Los Angeles Center
Fri 01:43:33 PM 34.5903 -119.3747 321° Northwest 156 180 8,600  Level Los Angeles Center
Fri 01:44:35 PM 34.6322 -119.4181 320° Northwest 158 182 8,600 -48 Level Los Angeles Center
Fri 01:45:37 PM 34.6642 -119.4536 318° Northwest 154 177 8,500  Descending Los Angeles Center
Fri 01:46:39 PM 34.6958 -119.4903 316° Northwest 156 180 8,600  Climbing Los Angeles Center
Fri 01:47:41 PM 34.7197 -119.5342 304° West 157 181 8,500 -48 Descending Los Angeles Center
Fri 01:48:44 PM 34.7506 -119.5836 307° West 158 182 8,500  Level Los Angeles Center
Fri 01:49:46 PM 34.7850 -119.6175 321° Northwest 160 184 8,500  Level Los Angeles Center
Fri 01:50:48 PM 34.8183 -119.6531 319° Northwest 160 184 8,500  Level Los Angeles Center
Fri 01:51:50 PM 34.8528 -119.6869 321° Northwest 159 183 8,500  Level Los Angeles Center
Fri 01:53:04 PM 34.8869 -119.7225 320° Northwest 160 184 8,500  Level Los Angeles Center
Fri 01:54:06 PM 34.9322 -119.7742 317° Northwest 161 185 8,500  Level Los Angeles Center
Fri 01:55:09 PM 34.9547 -119.8217 300° West 163 188 8,500  Level Los Angeles Center
Fri 01:56:11 PM 34.9781 -119.8683 301° West 167 192 8,500  Level Los Angeles Center
Fri 01:57:13 PM 35.0133 -119.9039 320° Northwest 165 190 8,500  Level Los Angeles Center
Fri 01:58:15 PM 35.0469 -119.9411 318° Northwest 163 188 8,500  Level Los Angeles Center
Fri 01:59:17 PM 35.0800 -119.9772 318° Northwest 161 185 8,500  Level Los Angeles Center
Fri 02:00:31 PM 35.1203 -120.0186 320° Northwest 160 184 8,500  Level Los Angeles Center
Fri 02:01:34 PM 35.1600 -120.0597 320° Northwest 158 182 8,500  Level Los Angeles Center
Fri 02:02:35 PM 35.1872 -120.0881 320° Northwest 159 183 8,500  Level Los Angeles Center
Fri 02:03:38 PM 35.2267 -120.1261 322° Northwest 160 184 8,500  Level Los Angeles Center
Fri 02:04:40 PM 35.2681 -120.1667 321° Northwest 160 184 8,500  Level Los Angeles Center
Fri 02:05:54 PM 35.3025 -120.2017 320° Northwest 161 185 8,500  Level Los Angeles Center
Fri 02:07:08 PM 35.3431 -120.2419 321° Northwest 159 183 8,500  Level Los Angeles Center
Fri 02:08:11 PM 35.3853 -120.2828 322° Northwest 161 185 8,500  Level Los Angeles Center
Fri 02:09:13 PM 35.4197 -120.3186 320° Northwest 163 188 8,500  Level Los Angeles Center
Fri 02:10:15 PM 35.4633 -120.3642 320° Northwest 168 193 8,500  Level Los Angeles Center
Fri 02:11:17 PM 35.4978 -120.4014 319° Northwest 169 194 8,500  Level Los Angeles Center
Fri 02:12:19 PM 35.5333 -120.4364 321° Northwest 167 192 8,500  Level Los Angeles Center
Fri 02:13:21 PM 35.5683 -120.4619 329° Northwest 160 184 8,500  Level Los Angeles Center
Fri 02:14:23 PM 35.6061 -120.4956 324° Northwest 162 186 8,500  Level Los Angeles Center
Fri 02:15:26 PM 35.6419 -120.5319 320° Northwest 166 191 8,500  Level Los Angeles Center
Fri 02:16:28 PM 35.6853 -120.5628 330° Northwest 159 183 8,500  Level Los Angeles Center
Fri 02:17:32 PM 35.7214 -120.5953 324° Northwest 161 185 8,500  Level Oakland Center
Fri 02:18:34 PM 35.7589 -120.6267 326° Northwest 162 186 8,500  Level Oakland Center
Fri 02:19:36 PM 35.7956 -120.6589 325° Northwest 162 186 8,500  Level Oakland Center
Fri 02:20:37 PM 35.8386 -120.6992 323° Northwest 162 186 8,500  Level Oakland Center
Fri 02:21:39 PM 35.8733 -120.7328 322° Northwest 161 185 8,500  Level Oakland Center
Fri 02:22:41 PM 35.9069 -120.7678 320° Northwest 159 183 8,500  Level Oakland Center
Fri 02:23:42 PM 35.9394 -120.8039 318° Northwest 158 182 8,500  Level Oakland Center
Fri 02:24:44 PM 35.9736 -120.8367 322° Northwest 157 181 8,500  Level Oakland Center
Fri 02:25:46 PM 36.0075 -120.8714 320° Northwest 157 181 8,500  Level Oakland Center
Fri 02:26:47 PM 36.0375 -120.9106 313° West 158 182 8,500  Level Oakland Center
Fri 02:27:49 PM 36.0722 -120.9628 309° West 160 184 8,500  Level Oakland Center
Fri 02:28:51 PM 36.0983 -121.0083 305° West 161 185 8,500  Level Oakland Center
Fri 02:29:53 PM 36.1272 -121.0519 309° West 163 188 8,500  Level Oakland Center
Fri 02:30:54 PM 36.1603 -121.0917 316° Northwest 164 189 8,500  Level Oakland Center
Fri 02:31:56 PM 36.1986 -121.1256 324° Northwest 167 192 8,500  Level Oakland Center
Fri 02:32:58 PM 36.2353 -121.1594 323° Northwest 166 191 8,500  Level Oakland Center
Fri 02:34:00 PM 36.2706 -121.1967 320° Northwest 167 192 8,500  Level Oakland Center
Fri 02:35:01 PM 36.3125 -121.2419 319° Northwest 167 192 8,500  Level Oakland Center
Fri 02:36:03 PM 36.3469 -121.2786 319° Northwest 165 190 8,500  Level Oakland Center
Fri 02:37:05 PM 36.3800 -121.3167 317° Northwest 163 188 8,500  Level Oakland Center
Fri 02:38:07 PM 36.4197 -121.3439 331° Northwest 161 185 8,500  Level Oakland Center
Fri 02:39:08 PM 36.4606 -121.3683 334° Northwest 163 188 8,500  Level Oakland Center
Fri 02:40:10 PM 36.4950 -121.4044 320° Northwest 162 186 8,500  Level Oakland Center
Fri 02:41:12 PM 36.5253 -121.4431 314° West 159 183 8,500 -145 Level Oakland Center
Fri 02:42:14 PM 36.5661 -121.4867 319° Northwest 160 184 8,200 -439 Descending Oakland Center
Fri 02:43:15 PM 36.6022 -121.4703 20° North 160 184 7,600 -590 Descending Oakland Center
Fri 02:45:00 PM 36.6551 -121.5313 317° Northwest  Level FlightAware Approximate
Fri 02:52:00 PM 36.8663 -121.7765 317° Northwest  Level FlightAware Approximate
Fri 02:53:00 PM 36.8964 -121.8116 317° Northwest  Level FlightAware Approximate
Fri 02:54:00 PM 36.9266 -121.8468 317° Northwest  Level FlightAware Approximate

Login

Don't have an account? Register now (free) for customized features, flight alerts, and more!